MAYO2: W. D. Mayo Lock And Dam (L&D 14)

Data processed at Fri Jan 05 2018 23:30


All information presented herein is the property of the government of the United States of America and may be revised or deleted at any time without prior notice.
Dissemination of this information without the expressed written consent of the Public Affairs Office, Tulsa District U.S. Army Corps of Engineers is strictly prohibited.
These data are gathered electronically and, as presented, have not undergone any form of quality control. These data are not guaranteed to be valid or correct.
Go to home page.
Go to station list.

Upstream stations:

Downstream station:
Previous Day
Next Day
Current Day
    
SHEF ID:       MAYO2     W. D. Mayo Lock And Dam (L&D 14)
STATION TYPE:  NAVIGATION LOCK
Normal Pool:  Bottom =   411.00, Top =   413.00

               PRECIP ELEVATION   STORAGE   TW-ELEV LOCK-ELEV    INFLOW   RELEASE  AIR-TEMP  WIND-DIRWIND-SPEED REL-HUMID SOLAR-RAD   VOLTAGE  BAT-LOAD
                   in        ft     ac-ft        ft        ft       cfs       cfs         F       deg       mph         %      W/m2      volt      volt
              Ccp-Rev   Ccp-Rev   Ccp-Rev   Ccp-Rev   Ccp-Rev  Regi-Rev  Regi-Rev   Ccp-Rev   Ccp-Rev   Ccp-Rev   Ccp-Rev   Ccp-Rev   Ccp-Rev   Ccp-Rev
(US/Central)
01/03 00:00      0.00    412.66     15183    391.86    412.73         0         0     18.72    251.30      2.10     51.69      0.00     13.57     13.44
01/03 01:00      0.00    412.78     15371    391.74    412.83         0         0     18.54    229.00      2.50     53.58      0.00     13.57     13.44
01/03 02:00      0.00    412.73     15292    391.54    412.83        75         0     17.78    226.50      2.50     56.86      0.00     13.58     13.44
01/03 03:00      0.00    412.69     15229    391.72    412.81       115         0     17.28    202.30      2.00     58.32      0.00     13.57     13.44
01/03 04:00      0.00    412.71     15261    391.76    391.94       115         0     16.39    201.10      2.60     61.95      0.00     13.58     13.44
01/03 05:00      0.00    412.33     14672    391.90    393.82       115         0     15.73    238.20      1.40     63.20      0.00     13.58     13.44
01/03 06:00      0.00    412.92     15592    391.82    394.97      6090         0     15.31    205.70      1.10     64.86      0.00     13.58     13.44
01/03 07:00      0.00    412.74     15308    391.66    401.50     13406         0     14.50    221.40      0.50     68.68      0.00     13.57     13.44
01/03 08:00      0.00    412.54     14996    391.53    401.43     15822     33822     13.68    242.00      1.20     69.89      5.80     13.58     13.44
01/03 09:00      0.00    412.70     15245    391.38    401.33     15915     33939     19.18    253.10      2.60     63.57    118.60     13.57     13.44
01/03 10:00      0.00    412.45     14857    391.36    401.37     16008     16974     23.52    249.30      4.90     58.23    269.90     13.57     13.44
01/03 11:00      0.00    412.66     15183    391.35    401.33     10033         0     27.27    289.30      5.50     50.66    396.90     13.57     13.44
01/03 12:00      0.00    412.50     14934    391.34    401.31      2642         0     30.49    271.20      4.70     45.26    480.30     13.57     13.44
01/03 13:00      0.00    412.57     15042    391.30    401.26       186         0     33.64    253.40      5.90     42.50    508.10     13.57     13.44
01/03 14:00      0.00    412.54     14996    391.31    401.28        93         0     36.39    316.60      7.20     41.96    474.50     13.57     13.44
01/03 15:00      0.00    412.50     14934    391.29    401.22       753         0     37.13    318.30      8.00     40.78    386.90     13.57     13.44
01/03 16:00      0.00    412.43     14826    391.23    401.23      1630         0     37.62    322.70      7.50     40.44    251.00     13.58     13.44
01/03 17:00      0.00    412.70     15245    391.23    401.19      5200         0     36.88    319.30      6.80     41.21     91.90     13.57     13.44
01/03 18:00      0.00    412.93     15608    391.25    401.18     13474         0     34.63    308.60      3.60     44.07      0.00     13.58     13.44
01/03 19:00      0.00    412.96     15655    391.20    401.17     19281     18619     32.27    279.40      2.30     47.20      0.00     13.58     13.44
01/03 20:00      0.00    412.88     15528    391.15    401.14     23233     34204     30.81    257.70      2.90     51.03      0.00     13.57     13.44
01/03 21:00      0.00    412.63     15136    391.04    401.13     25984     34276     29.88    276.80      2.80     55.00      0.00     13.57     13.44
01/03 22:00      0.00    412.43     14826    390.94    401.12     23697     34136     26.58    207.30      0.70     61.82      0.00     13.58     13.44
01/03 23:00      0.00    412.49     14919    391.38    401.09     16917     17025     23.97    235.70      1.40     69.64      0.00     13.58     13.44